sensor_id;sensor_type;location;lat;lon;timestamp;P1;durP1;ratioP1;P2;durP2;ratioP2
22184;SDS011;11258;52.516;13.318;2022-12-20T00:01:07;27.47;;;14.80;;
22184;SDS011;11258;52.516;13.318;2022-12-20T00:03:35;25.50;;;13.93;;
22184;SDS011;11258;52.516;13.318;2022-12-20T00:06:01;24.47;;;14.47;;
22184;SDS011;11258;52.516;13.318;2022-12-20T00:08:27;31.20;;;15.23;;
22184;SDS011;11258;52.516;13.318;2022-12-20T00:10:53;25.77;;;13.70;;
22184;SDS011;11258;52.516;13.318;2022-12-20T00:13:18;25.73;;;14.07;;
22184;SDS011;11258;52.516;13.318;2022-12-20T00:15:44;27.90;;;14.80;;
22184;SDS011;11258;52.516;13.318;2022-12-20T00:18:09;25.83;;;13.03;;
22184;SDS011;11258;52.516;13.318;2022-12-20T00:20:35;24.27;;;13.43;;
22184;SDS011;11258;52.516;13.318;2022-12-20T00:23:01;26.00;;;14.40;;
22184;SDS011;11258;52.516;13.318;2022-12-20T00:25:27;27.13;;;14.73;;
22184;SDS011;11258;52.516;13.318;2022-12-20T00:27:53;24.77;;;14.47;;
22184;SDS011;11258;52.516;13.318;2022-12-20T00:30:19;26.27;;;14.57;;
22184;SDS011;11258;52.516;13.318;2022-12-20T00:32:44;25.63;;;13.83;;
22184;SDS011;11258;52.516;13.318;2022-12-20T00:35:10;21.53;;;12.83;;
22184;SDS011;11258;52.516;13.318;2022-12-20T00:37:37;24.30;;;13.13;;
22184;SDS011;11258;52.516;13.318;2022-12-20T00:40:03;24.27;;;12.87;;
22184;SDS011;11258;52.516;13.318;2022-12-20T00:42:30;27.13;;;14.27;;
22184;SDS011;11258;52.516;13.318;2022-12-20T00:44:55;27.13;;;14.27;;
22184;SDS011;11258;52.516;13.318;2022-12-20T00:47:21;27.63;;;13.67;;
22184;SDS011;11258;52.516;13.318;2022-12-20T00:49:47;29.03;;;14.77;;
22184;SDS011;11258;52.516;13.318;2022-12-20T00:52:12;22.73;;;12.63;;
22184;SDS011;11258;52.516;13.318;2022-12-20T00:54:38;27.90;;;13.47;;
22184;SDS011;11258;52.516;13.318;2022-12-20T00:57:04;25.40;;;14.13;;
22184;SDS011;11258;52.516;13.318;2022-12-20T00:59:29;26.60;;;14.37;;
22184;SDS011;11258;52.516;13.318;2022-12-20T01:01:55;21.60;;;13.50;;
22184;SDS011;11258;52.516;13.318;2022-12-20T01:04:20;21.93;;;12.77;;
22184;SDS011;11258;52.516;13.318;2022-12-20T01:06:46;29.27;;;14.07;;
22184;SDS011;11258;52.516;13.318;2022-12-20T01:09:12;24.50;;;13.60;;
22184;SDS011;11258;52.516;13.318;2022-12-20T01:11:37;23.53;;;13.30;;
22184;SDS011;11258;52.516;13.318;2022-12-20T01:14:05;24.10;;;12.60;;
22184;SDS011;11258;52.516;13.318;2022-12-20T01:16:39;21.43;;;12.90;;
22184;SDS011;11258;52.516;13.318;2022-12-20T01:19:07;23.80;;;13.27;;
22184;SDS011;11258;52.516;13.318;2022-12-20T01:21:36;23.57;;;13.37;;
22184;SDS011;11258;52.516;13.318;2022-12-20T01:24:03;26.13;;;13.23;;
22184;SDS011;11258;52.516;13.318;2022-12-20T01:26:29;21.23;;;11.63;;
22184;SDS011;11258;52.516;13.318;2022-12-20T01:28:56;21.40;;;11.63;;
22184;SDS011;11258;52.516;13.318;2022-12-20T01:31:23;27.17;;;13.33;;
22184;SDS011;11258;52.516;13.318;2022-12-20T01:33:50;23.03;;;12.50;;
22184;SDS011;11258;52.516;13.318;2022-12-20T01:36:21;23.97;;;12.73;;
22184;SDS011;11258;52.516;13.318;2022-12-20T01:38:54;19.97;;;12.13;;
22184;SDS011;11258;52.516;13.318;2022-12-20T01:41:21;22.60;;;12.40;;
22184;SDS011;11258;52.516;13.318;2022-12-20T01:43:51;21.70;;;11.23;;
22184;SDS011;11258;52.516;13.318;2022-12-20T01:46:20;22.87;;;12.17;;
22184;SDS011;11258;52.516;13.318;2022-12-20T01:48:49;20.80;;;11.63;;
22184;SDS011;11258;52.516;13.318;2022-12-20T01:51:21;21.63;;;12.37;;
22184;SDS011;11258;52.516;13.318;2022-12-20T01:53:47;22.23;;;12.43;;
22184;SDS011;11258;52.516;13.318;2022-12-20T01:56:19;21.90;;;12.13;;
22184;SDS011;11258;52.516;13.318;2022-12-20T01:58:44;21.20;;;11.87;;
22184;SDS011;11258;52.516;13.318;2022-12-20T02:01:13;20.70;;;12.23;;
22184;SDS011;11258;52.516;13.318;2022-12-20T02:03:39;22.50;;;12.63;;
22184;SDS011;11258;52.516;13.318;2022-12-20T02:06:13;18.93;;;11.50;;
22184;SDS011;11258;52.516;13.318;2022-12-20T02:08:43;19.47;;;12.73;;
22184;SDS011;11258;52.516;13.318;2022-12-20T02:16:50;23.83;;;13.03;;
22184;SDS011;11258;52.516;13.318;2022-12-20T02:27:42;25.50;;;12.63;;
22184;SDS011;11258;52.516;13.318;2022-12-20T02:30:19;23.10;;;11.43;;
22184;SDS011;11258;52.516;13.318;2022-12-20T02:32:47;22.03;;;12.60;;
22184;SDS011;11258;52.516;13.318;2022-12-20T02:35:26;19.63;;;12.10;;
22184;SDS011;11258;52.516;13.318;2022-12-20T02:37:55;22.77;;;12.03;;
22184;SDS011;11258;52.516;13.318;2022-12-20T02:40:24;21.63;;;12.13;;
22184;SDS011;11258;52.516;13.318;2022-12-20T02:42:58;17.30;;;10.77;;
22184;SDS011;11258;52.516;13.318;2022-12-20T02:45:28;22.53;;;11.70;;
22184;SDS011;11258;52.516;13.318;2022-12-20T02:48:02;18.47;;;11.47;;
22184;SDS011;11258;52.516;13.318;2022-12-20T02:50:43;21.57;;;11.77;;
22184;SDS011;11258;52.516;13.318;2022-12-20T02:53:14;21.67;;;12.30;;
22184;SDS011;11258;52.516;13.318;2022-12-20T02:55:51;19.63;;;11.53;;
22184;SDS011;11258;52.516;13.318;2022-12-20T02:58:28;19.50;;;11.90;;
22184;SDS011;11258;52.516;13.318;2022-12-20T03:00:58;19.87;;;11.13;;
22184;SDS011;11258;52.516;13.318;2022-12-20T03:03:28;21.53;;;12.33;;
22184;SDS011;11258;52.516;13.318;2022-12-20T03:05:58;19.47;;;11.30;;
22184;SDS011;11258;52.516;13.318;2022-12-20T03:08:24;23.33;;;12.00;;
22184;SDS011;11258;52.516;13.318;2022-12-20T03:10:50;18.37;;;10.67;;
22184;SDS011;11258;52.516;13.318;2022-12-20T03:13:17;19.37;;;12.57;;
22184;SDS011;11258;52.516;13.318;2022-12-20T03:15:43;21.87;;;12.10;;
22184;SDS011;11258;52.516;13.318;2022-12-20T03:18:08;21.07;;;12.13;;
22184;SDS011;11258;52.516;13.318;2022-12-20T03:20:34;17.90;;;10.83;;
22184;SDS011;11258;52.516;13.318;2022-12-20T03:23:00;18.97;;;10.63;;
22184;SDS011;11258;52.516;13.318;2022-12-20T03:25:26;21.53;;;11.50;;
22184;SDS011;11258;52.516;13.318;2022-12-20T03:27:52;18.87;;;11.60;;
22184;SDS011;11258;52.516;13.318;2022-12-20T03:30:18;18.53;;;10.43;;
22184;SDS011;11258;52.516;13.318;2022-12-20T03:32:43;18.43;;;11.27;;
22184;SDS011;11258;52.516;13.318;2022-12-20T03:35:09;18.67;;;11.37;;
22184;SDS011;11258;52.516;13.318;2022-12-20T03:37:35;22.63;;;11.60;;
22184;SDS011;11258;52.516;13.318;2022-12-20T03:40:00;18.87;;;10.60;;
22184;SDS011;11258;52.516;13.318;2022-12-20T03:42:26;18.67;;;11.00;;
22184;SDS011;11258;52.516;13.318;2022-12-20T03:44:52;19.73;;;11.30;;
22184;SDS011;11258;52.516;13.318;2022-12-20T03:47:17;16.90;;;10.97;;
22184;SDS011;11258;52.516;13.318;2022-12-20T03:49:43;19.27;;;11.10;;
22184;SDS011;11258;52.516;13.318;2022-12-20T03:52:10;20.17;;;11.17;;
22184;SDS011;11258;52.516;13.318;2022-12-20T03:54:37;18.03;;;11.10;;
22184;SDS011;11258;52.516;13.318;2022-12-20T03:57:02;20.73;;;10.67;;
22184;SDS011;11258;52.516;13.318;2022-12-20T03:59:28;18.83;;;10.50;;
22184;SDS011;11258;52.516;13.318;2022-12-20T04:01:53;17.70;;;10.70;;
22184;SDS011;11258;52.516;13.318;2022-12-20T04:04:19;19.50;;;11.43;;
22184;SDS011;11258;52.516;13.318;2022-12-20T04:06:45;18.60;;;10.63;;
22184;SDS011;11258;52.516;13.318;2022-12-20T04:09:10;19.57;;;11.00;;
22184;SDS011;11258;52.516;13.318;2022-12-20T04:11:36;22.77;;;11.77;;
22184;SDS011;11258;52.516;13.318;2022-12-20T04:14:03;17.97;;;10.30;;
22184;SDS011;11258;52.516;13.318;2022-12-20T04:16:29;18.73;;;10.30;;
22184;SDS011;11258;52.516;13.318;2022-12-20T04:18:56;19.47;;;10.80;;
22184;SDS011;11258;52.516;13.318;2022-12-20T04:21:22;20.83;;;11.43;;
22184;SDS011;11258;52.516;13.318;2022-12-20T04:23:50;19.30;;;11.27;;
22184;SDS011;11258;52.516;13.318;2022-12-20T04:26:16;18.50;;;11.17;;
22184;SDS011;11258;52.516;13.318;2022-12-20T04:28:42;19.87;;;11.33;;
22184;SDS011;11258;52.516;13.318;2022-12-20T04:31:08;19.47;;;11.20;;
22184;SDS011;11258;52.516;13.318;2022-12-20T04:33:34;19.97;;;11.13;;
22184;SDS011;11258;52.516;13.318;2022-12-20T04:36:00;17.70;;;10.37;;
22184;SDS011;11258;52.516;13.318;2022-12-20T04:38:26;18.57;;;11.30;;
22184;SDS011;11258;52.516;13.318;2022-12-20T04:40:52;18.90;;;11.23;;
22184;SDS011;11258;52.516;13.318;2022-12-20T04:43:19;18.87;;;10.63;;
22184;SDS011;11258;52.516;13.318;2022-12-20T04:45:49;17.93;;;10.60;;
22184;SDS011;11258;52.516;13.318;2022-12-20T04:48:16;16.80;;;10.30;;
22184;SDS011;11258;52.516;13.318;2022-12-20T04:50:46;19.10;;;10.40;;
22184;SDS011;11258;52.516;13.318;2022-12-20T04:53:15;20.50;;;11.27;;
22184;SDS011;11258;52.516;13.318;2022-12-20T04:55:59;21.10;;;11.60;;
22184;SDS011;11258;52.516;13.318;2022-12-20T04:58:26;22.00;;;11.17;;
22184;SDS011;11258;52.516;13.318;2022-12-20T05:00:51;20.58;;;12.20;;
22184;SDS011;11258;52.516;13.318;2022-12-20T05:03:18;16.30;;;10.60;;
22184;SDS011;11258;52.516;13.318;2022-12-20T05:05:44;18.43;;;11.23;;
22184;SDS011;11258;52.516;13.318;2022-12-20T05:08:09;18.27;;;11.07;;
22184;SDS011;11258;52.516;13.318;2022-12-20T05:10:35;21.10;;;11.93;;
22184;SDS011;11258;52.516;13.318;2022-12-20T05:13:01;17.03;;;10.80;;
22184;SDS011;11258;52.516;13.318;2022-12-20T05:15:27;16.63;;;10.00;;
22184;SDS011;11258;52.516;13.318;2022-12-20T05:17:53;20.47;;;10.90;;
22184;SDS011;11258;52.516;13.318;2022-12-20T05:20:25;19.17;;;11.30;;
22184;SDS011;11258;52.516;13.318;2022-12-20T05:22:51;20.33;;;11.27;;
22184;SDS011;11258;52.516;13.318;2022-12-20T05:25:37;20.40;;;11.17;;
22184;SDS011;11258;52.516;13.318;2022-12-20T05:28:22;19.37;;;11.30;;
22184;SDS011;11258;52.516;13.318;2022-12-20T05:30:48;19.43;;;10.83;;
22184;SDS011;11258;52.516;13.318;2022-12-20T05:33:14;20.07;;;11.13;;
22184;SDS011;11258;52.516;13.318;2022-12-20T05:35:39;16.47;;;10.13;;
22184;SDS011;11258;52.516;13.318;2022-12-20T05:38:05;18.07;;;10.67;;
22184;SDS011;11258;52.516;13.318;2022-12-20T05:40:31;21.57;;;11.73;;
22184;SDS011;11258;52.516;13.318;2022-12-20T05:42:57;21.90;;;10.93;;
22184;SDS011;11258;52.516;13.318;2022-12-20T05:45:22;16.07;;;11.03;;
22184;SDS011;11258;52.516;13.318;2022-12-20T05:47:48;20.77;;;11.17;;
22184;SDS011;11258;52.516;13.318;2022-12-20T05:50:13;21.37;;;12.00;;
22184;SDS011;11258;52.516;13.318;2022-12-20T05:52:41;19.33;;;10.83;;
22184;SDS011;11258;52.516;13.318;2022-12-20T05:55:07;21.80;;;12.40;;
22184;SDS011;11258;52.516;13.318;2022-12-20T05:57:32;17.40;;;10.73;;
22184;SDS011;11258;52.516;13.318;2022-12-20T05:59:58;18.53;;;10.17;;
22184;SDS011;11258;52.516;13.318;2022-12-20T06:02:24;18.13;;;11.30;;
22184;SDS011;11258;52.516;13.318;2022-12-20T06:04:49;18.87;;;11.67;;
22184;SDS011;11258;52.516;13.318;2022-12-20T06:07:15;20.47;;;11.50;;
22184;SDS011;11258;52.516;13.318;2022-12-20T06:09:40;19.03;;;11.83;;
22184;SDS011;11258;52.516;13.318;2022-12-20T06:12:06;19.37;;;11.13;;
22184;SDS011;11258;52.516;13.318;2022-12-20T06:14:32;17.10;;;10.40;;
22184;SDS011;11258;52.516;13.318;2022-12-20T06:16:57;18.13;;;10.33;;
22184;SDS011;11258;52.516;13.318;2022-12-20T06:19:23;17.63;;;11.53;;
22184;SDS011;11258;52.516;13.318;2022-12-20T06:21:48;20.03;;;10.87;;
22184;SDS011;11258;52.516;13.318;2022-12-20T06:24:14;13.77;;;10.53;;
22184;SDS011;11258;52.516;13.318;2022-12-20T06:26:40;19.73;;;11.03;;
22184;SDS011;11258;52.516;13.318;2022-12-20T06:29:05;17.60;;;10.47;;
22184;SDS011;11258;52.516;13.318;2022-12-20T06:31:33;18.07;;;11.30;;
22184;SDS011;11258;52.516;13.318;2022-12-20T06:33:59;22.93;;;11.53;;
22184;SDS011;11258;52.516;13.318;2022-12-20T06:36:24;19.47;;;11.10;;
22184;SDS011;11258;52.516;13.318;2022-12-20T06:38:50;20.17;;;11.27;;
22184;SDS011;11258;52.516;13.318;2022-12-20T06:41:15;21.67;;;11.60;;
22184;SDS011;11258;52.516;13.318;2022-12-20T06:43:41;22.03;;;11.93;;
22184;SDS011;11258;52.516;13.318;2022-12-20T06:46:07;20.13;;;12.63;;
22184;SDS011;11258;52.516;13.318;2022-12-20T06:48:32;22.00;;;11.27;;
22184;SDS011;11258;52.516;13.318;2022-12-20T06:50:58;21.30;;;12.53;;
22184;SDS011;11258;52.516;13.318;2022-12-20T06:53:24;18.97;;;11.03;;
22184;SDS011;11258;52.516;13.318;2022-12-20T06:55:49;20.70;;;12.27;;
22184;SDS011;11258;52.516;13.318;2022-12-20T06:58:18;17.57;;;11.03;;
22184;SDS011;11258;52.516;13.318;2022-12-20T07:00:45;19.93;;;11.90;;
22184;SDS011;11258;52.516;13.318;2022-12-20T07:03:11;17.77;;;11.17;;
22184;SDS011;11258;52.516;13.318;2022-12-20T07:05:37;21.37;;;12.23;;
22184;SDS011;11258;52.516;13.318;2022-12-20T07:08:04;19.80;;;12.43;;
22184;SDS011;11258;52.516;13.318;2022-12-20T07:10:32;18.27;;;11.33;;
22184;SDS011;11258;52.516;13.318;2022-12-20T07:12:59;26.63;;;12.33;;
22184;SDS011;11258;52.516;13.318;2022-12-20T07:15:25;18.33;;;11.50;;
22184;SDS011;11258;52.516;13.318;2022-12-20T07:17:51;22.73;;;12.30;;
22184;SDS011;11258;52.516;13.318;2022-12-20T07:20:16;21.17;;;12.33;;
22184;SDS011;11258;52.516;13.318;2022-12-20T07:22:42;21.07;;;12.27;;
22184;SDS011;11258;52.516;13.318;2022-12-20T07:25:11;22.00;;;11.60;;
22184;SDS011;11258;52.516;13.318;2022-12-20T07:27:36;25.53;;;12.77;;
22184;SDS011;11258;52.516;13.318;2022-12-20T07:30:02;21.73;;;13.63;;
22184;SDS011;11258;52.516;13.318;2022-12-20T07:32:29;24.33;;;13.23;;
22184;SDS011;11258;52.516;13.318;2022-12-20T07:34:54;19.80;;;11.73;;
22184;SDS011;11258;52.516;13.318;2022-12-20T07:37:20;26.30;;;13.47;;
22184;SDS011;11258;52.516;13.318;2022-12-20T07:39:46;22.87;;;12.77;;
22184;SDS011;11258;52.516;13.318;2022-12-20T07:42:11;25.37;;;12.13;;
22184;SDS011;11258;52.516;13.318;2022-12-20T07:44:37;22.33;;;13.27;;
22184;SDS011;11258;52.516;13.318;2022-12-20T07:47:02;21.27;;;13.00;;
22184;SDS011;11258;52.516;13.318;2022-12-20T07:49:28;21.30;;;12.43;;
22184;SDS011;11258;52.516;13.318;2022-12-20T07:51:55;22.90;;;13.07;;
22184;SDS011;11258;52.516;13.318;2022-12-20T07:54:29;23.63;;;13.17;;
22184;SDS011;11258;52.516;13.318;2022-12-20T07:56:57;25.37;;;13.80;;
22184;SDS011;11258;52.516;13.318;2022-12-20T07:59:29;25.97;;;13.97;;
22184;SDS011;11258;52.516;13.318;2022-12-20T08:02:00;23.90;;;13.53;;
22184;SDS011;11258;52.516;13.318;2022-12-20T08:04:26;27.83;;;14.73;;
22184;SDS011;11258;52.516;13.318;2022-12-20T08:06:54;26.63;;;14.13;;
22184;SDS011;11258;52.516;13.318;2022-12-20T08:09:23;22.87;;;13.90;;
22184;SDS011;11258;52.516;13.318;2022-12-20T08:11:50;26.80;;;13.67;;
22184;SDS011;11258;52.516;13.318;2022-12-20T08:14:17;31.23;;;14.63;;
22184;SDS011;11258;52.516;13.318;2022-12-20T08:16:43;27.93;;;14.93;;
22184;SDS011;11258;52.516;13.318;2022-12-20T08:19:09;22.37;;;13.07;;
22184;SDS011;11258;52.516;13.318;2022-12-20T08:21:35;23.77;;;14.77;;
22184;SDS011;11258;52.516;13.318;2022-12-20T08:24:01;28.30;;;14.83;;
22184;SDS011;11258;52.516;13.318;2022-12-20T08:26:26;27.60;;;14.40;;
22184;SDS011;11258;52.516;13.318;2022-12-20T08:28:53;25.50;;;14.77;;
22184;SDS011;11258;52.516;13.318;2022-12-20T08:31:19;27.90;;;16.30;;
22184;SDS011;11258;52.516;13.318;2022-12-20T08:33:44;30.10;;;14.47;;
22184;SDS011;11258;52.516;13.318;2022-12-20T08:36:10;23.80;;;14.30;;
22184;SDS011;11258;52.516;13.318;2022-12-20T08:38:38;26.23;;;15.57;;
22184;SDS011;11258;52.516;13.318;2022-12-20T08:41:05;25.03;;;14.77;;
22184;SDS011;11258;52.516;13.318;2022-12-20T08:43:34;27.03;;;15.03;;
22184;SDS011;11258;52.516;13.318;2022-12-20T08:46:00;27.97;;;15.87;;
22184;SDS011;11258;52.516;13.318;2022-12-20T08:48:27;27.67;;;14.73;;
22184;SDS011;11258;52.516;13.318;2022-12-20T08:50:56;28.50;;;15.70;;
22184;SDS011;11258;52.516;13.318;2022-12-20T08:53:25;26.13;;;14.33;;
22184;SDS011;11258;52.516;13.318;2022-12-20T08:55:51;27.30;;;14.73;;
22184;SDS011;11258;52.516;13.318;2022-12-20T08:58:17;32.40;;;20.30;;
22184;SDS011;11258;52.516;13.318;2022-12-20T09:00:44;26.23;;;14.30;;
22184;SDS011;11258;52.516;13.318;2022-12-20T09:03:10;26.37;;;14.53;;
22184;SDS011;11258;52.516;13.318;2022-12-20T09:05:46;25.20;;;13.97;;
22184;SDS011;11258;52.516;13.318;2022-12-20T09:08:13;23.43;;;14.60;;
22184;SDS011;11258;52.516;13.318;2022-12-20T09:10:39;34.00;;;15.57;;
22184;SDS011;11258;52.516;13.318;2022-12-20T09:13:05;26.57;;;14.03;;
22184;SDS011;11258;52.516;13.318;2022-12-20T09:15:32;28.47;;;14.90;;
22184;SDS011;11258;52.516;13.318;2022-12-20T09:17:59;22.17;;;13.57;;
22184;SDS011;11258;52.516;13.318;2022-12-20T09:20:24;27.00;;;16.23;;
22184;SDS011;11258;52.516;13.318;2022-12-20T09:22:50;24.97;;;14.50;;
22184;SDS011;11258;52.516;13.318;2022-12-20T09:25:16;25.13;;;13.53;;
22184;SDS011;11258;52.516;13.318;2022-12-20T09:27:41;23.43;;;13.73;;
22184;SDS011;11258;52.516;13.318;2022-12-20T09:30:07;23.67;;;13.17;;
22184;SDS011;11258;52.516;13.318;2022-12-20T09:32:33;21.17;;;13.43;;
22184;SDS011;11258;52.516;13.318;2022-12-20T09:34:59;19.50;;;13.20;;
22184;SDS011;11258;52.516;13.318;2022-12-20T09:37:24;25.47;;;13.80;;
22184;SDS011;11258;52.516;13.318;2022-12-20T09:39:50;27.53;;;13.53;;
22184;SDS011;11258;52.516;13.318;2022-12-20T09:42:16;24.73;;;13.00;;
22184;SDS011;11258;52.516;13.318;2022-12-20T09:44:46;26.43;;;13.07;;
22184;SDS011;11258;52.516;13.318;2022-12-20T09:47:16;23.17;;;13.63;;
22184;SDS011;11258;52.516;13.318;2022-12-20T09:49:47;25.03;;;13.13;;
22184;SDS011;11258;52.516;13.318;2022-12-20T10:00:22;23.03;;;13.13;;
22184;SDS011;11258;52.516;13.318;2022-12-20T10:02:48;20.03;;;11.47;;
22184;SDS011;11258;52.516;13.318;2022-12-20T10:07:59;19.90;;;11.50;;
22184;SDS011;11258;52.516;13.318;2022-12-20T10:10:50;19.33;;;12.00;;
22184;SDS011;11258;52.516;13.318;2022-12-20T10:21:38;19.13;;;12.53;;
22184;SDS011;11258;52.516;13.318;2022-12-20T10:24:24;17.87;;;11.10;;
22184;SDS011;11258;52.516;13.318;2022-12-20T10:27:11;20.03;;;12.37;;
22184;SDS011;11258;52.516;13.318;2022-12-20T10:29:43;18.87;;;11.27;;
22184;SDS011;11258;52.516;13.318;2022-12-20T10:32:18;19.37;;;11.80;;
22184;SDS011;11258;52.516;13.318;2022-12-20T10:37:39;20.10;;;12.03;;
22184;SDS011;11258;52.516;13.318;2022-12-20T10:42:56;16.57;;;11.77;;
22184;SDS011;11258;52.516;13.318;2022-12-20T10:47:47;18.70;;;11.63;;
22184;SDS011;11258;52.516;13.318;2022-12-20T10:50:19;21.40;;;12.37;;
22184;SDS011;11258;52.516;13.318;2022-12-20T10:53:01;19.03;;;11.13;;
22184;SDS011;11258;52.516;13.318;2022-12-20T11:01:26;16.07;;;10.77;;
22184;SDS011;11258;52.516;13.318;2022-12-20T11:03:59;16.40;;;10.77;;
22184;SDS011;11258;52.516;13.318;2022-12-20T11:14:31;20.07;;;12.67;;
22184;SDS011;11258;52.516;13.318;2022-12-20T11:16:59;20.53;;;11.83;;
22184;SDS011;11258;52.516;13.318;2022-12-20T11:30:34;16.67;;;10.40;;
22184;SDS011;11258;52.516;13.318;2022-12-20T11:33:55;18.30;;;11.73;;
22184;SDS011;11258;52.516;13.318;2022-12-20T11:36:50;17.23;;;10.90;;
22184;SDS011;11258;52.516;13.318;2022-12-20T11:50:12;14.43;;;9.87;;
22184;SDS011;11258;52.516;13.318;2022-12-20T11:52:57;14.73;;;9.60;;
22184;SDS011;11258;52.516;13.318;2022-12-20T11:55:33;17.27;;;10.40;;
22184;SDS011;11258;52.516;13.318;2022-12-20T11:58:09;15.40;;;9.57;;
22184;SDS011;11258;52.516;13.318;2022-12-20T12:00:53;17.57;;;11.13;;
22184;SDS011;11258;52.516;13.318;2022-12-20T12:03:29;17.97;;;9.80;;
22184;SDS011;11258;52.516;13.318;2022-12-20T12:08:47;16.10;;;10.33;;
22184;SDS011;11258;52.516;13.318;2022-12-20T12:11:18;19.13;;;11.00;;
22184;SDS011;11258;52.516;13.318;2022-12-20T12:13:47;15.03;;;9.27;;
22184;SDS011;11258;52.516;13.318;2022-12-20T12:16:31;16.57;;;10.10;;
22184;SDS011;11258;52.516;13.318;2022-12-20T12:19:10;15.67;;;9.87;;
22184;SDS011;11258;52.516;13.318;2022-12-20T12:21:38;15.47;;;9.93;;
22184;SDS011;11258;52.516;13.318;2022-12-20T12:24:28;16.37;;;9.93;;
22184;SDS011;11258;52.516;13.318;2022-12-20T12:26:58;18.27;;;10.47;;
22184;SDS011;11258;52.516;13.318;2022-12-20T12:29:24;19.37;;;10.17;;
22184;SDS011;11258;52.516;13.318;2022-12-20T12:31:53;15.97;;;10.67;;
22184;SDS011;11258;52.516;13.318;2022-12-20T12:34:30;15.20;;;10.27;;
22184;SDS011;11258;52.516;13.318;2022-12-20T12:39:56;14.43;;;9.20;;
22184;SDS011;11258;52.516;13.318;2022-12-20T12:42:45;17.53;;;9.93;;
22184;SDS011;11258;52.516;13.318;2022-12-20T12:45:26;18.30;;;9.80;;
22184;SDS011;11258;52.516;13.318;2022-12-20T12:48:04;17.50;;;9.57;;
22184;SDS011;11258;52.516;13.318;2022-12-20T12:50:41;15.17;;;9.87;;
22184;SDS011;11258;52.516;13.318;2022-12-20T12:53:15;15.87;;;9.93;;
22184;SDS011;11258;52.516;13.318;2022-12-20T12:55:45;16.23;;;9.27;;
22184;SDS011;11258;52.516;13.318;2022-12-20T12:58:13;17.60;;;10.60;;
22184;SDS011;11258;52.516;13.318;2022-12-20T13:03:19;18.17;;;9.97;;
22184;SDS011;11258;52.516;13.318;2022-12-20T13:08:48;16.30;;;9.80;;
22184;SDS011;11258;52.516;13.318;2022-12-20T13:16:36;19.30;;;9.80;;
22184;SDS011;11258;52.516;13.318;2022-12-20T13:19:09;14.60;;;9.37;;
22184;SDS011;11258;52.516;13.318;2022-12-20T13:27:23;16.27;;;9.40;;
22184;SDS011;11258;52.516;13.318;2022-12-20T13:40:18;17.43;;;10.57;;
22184;SDS011;11258;52.516;13.318;2022-12-20T13:43:09;19.40;;;10.83;;
22184;SDS011;11258;52.516;13.318;2022-12-20T13:48:34;19.93;;;10.47;;
22184;SDS011;11258;52.516;13.318;2022-12-20T13:51:23;16.80;;;10.90;;
22184;SDS011;11258;52.516;13.318;2022-12-20T13:53:52;16.63;;;10.57;;
22184;SDS011;11258;52.516;13.318;2022-12-20T13:58:52;17.23;;;10.77;;
22184;SDS011;11258;52.516;13.318;2022-12-20T14:01:22;15.37;;;10.03;;
22184;SDS011;11258;52.516;13.318;2022-12-20T14:03:49;18.93;;;11.33;;
22184;SDS011;11258;52.516;13.318;2022-12-20T14:06:17;16.23;;;10.73;;
22184;SDS011;11258;52.516;13.318;2022-12-20T14:08:48;15.70;;;10.67;;
22184;SDS011;11258;52.516;13.318;2022-12-20T14:11:16;17.93;;;10.20;;
22184;SDS011;11258;52.516;13.318;2022-12-20T14:13:54;18.70;;;11.00;;
22184;SDS011;11258;52.516;13.318;2022-12-20T14:16:25;17.47;;;10.50;;
22184;SDS011;11258;52.516;13.318;2022-12-20T14:21:21;19.90;;;10.40;;
22184;SDS011;11258;52.516;13.318;2022-12-20T14:23:49;17.97;;;10.47;;
22184;SDS011;11258;52.516;13.318;2022-12-20T14:26:19;24.13;;;15.07;;
22184;SDS011;11258;52.516;13.318;2022-12-20T14:28:49;17.30;;;10.90;;
22184;SDS011;11258;52.516;13.318;2022-12-20T14:33:59;17.83;;;9.33;;
22184;SDS011;11258;52.516;13.318;2022-12-20T14:36:35;16.23;;;10.10;;
22184;SDS011;11258;52.516;13.318;2022-12-20T14:39:27;19.77;;;10.53;;
22184;SDS011;11258;52.516;13.318;2022-12-20T14:44:25;16.23;;;9.93;;
22184;SDS011;11258;52.516;13.318;2022-12-20T14:46:53;15.40;;;10.47;;
22184;SDS011;11258;52.516;13.318;2022-12-20T14:49:28;17.97;;;10.70;;
22184;SDS011;11258;52.516;13.318;2022-12-20T14:57:53;19.10;;;11.20;;
22184;SDS011;11258;52.516;13.318;2022-12-20T15:00:31;18.00;;;11.17;;
22184;SDS011;11258;52.516;13.318;2022-12-20T15:13:15;19.50;;;11.13;;
22184;SDS011;11258;52.516;13.318;2022-12-20T15:15:41;20.83;;;11.70;;
22184;SDS011;11258;52.516;13.318;2022-12-20T15:18:09;20.10;;;11.67;;
22184;SDS011;11258;52.516;13.318;2022-12-20T15:20:39;22.17;;;12.57;;
22184;SDS011;11258;52.516;13.318;2022-12-20T15:23:17;20.33;;;11.93;;
22184;SDS011;11258;52.516;13.318;2022-12-20T15:25:44;23.87;;;13.43;;
22184;SDS011;11258;52.516;13.318;2022-12-20T15:28:20;21.87;;;13.50;;
22184;SDS011;11258;52.516;13.318;2022-12-20T15:30:48;23.97;;;13.43;;
22184;SDS011;11258;52.516;13.318;2022-12-20T15:33:25;23.20;;;13.47;;
22184;SDS011;11258;52.516;13.318;2022-12-20T15:35:52;20.43;;;12.77;;
22184;SDS011;11258;52.516;13.318;2022-12-20T15:38:23;24.47;;;14.00;;
22184;SDS011;11258;52.516;13.318;2022-12-20T15:40:53;24.40;;;14.60;;
22184;SDS011;11258;52.516;13.318;2022-12-20T15:43:26;28.00;;;13.87;;
22184;SDS011;11258;52.516;13.318;2022-12-20T15:45:52;21.13;;;12.90;;
22184;SDS011;11258;52.516;13.318;2022-12-20T15:48:19;25.87;;;14.00;;
22184;SDS011;11258;52.516;13.318;2022-12-20T15:50:53;23.03;;;13.67;;
22184;SDS011;11258;52.516;13.318;2022-12-20T15:53:23;22.57;;;12.77;;
22184;SDS011;11258;52.516;13.318;2022-12-20T15:55:51;22.37;;;13.77;;
22184;SDS011;11258;52.516;13.318;2022-12-20T15:58:20;22.70;;;13.60;;
22184;SDS011;11258;52.516;13.318;2022-12-20T16:00:47;25.17;;;13.73;;
22184;SDS011;11258;52.516;13.318;2022-12-20T16:03:17;24.53;;;13.47;;
22184;SDS011;11258;52.516;13.318;2022-12-20T16:05:47;25.87;;;14.73;;
22184;SDS011;11258;52.516;13.318;2022-12-20T16:08:14;23.23;;;13.93;;
22184;SDS011;11258;52.516;13.318;2022-12-20T16:10:40;25.07;;;13.80;;
22184;SDS011;11258;52.516;13.318;2022-12-20T16:13:09;24.33;;;15.03;;
22184;SDS011;11258;52.516;13.318;2022-12-20T16:15:39;25.90;;;14.60;;
22184;SDS011;11258;52.516;13.318;2022-12-20T16:18:04;27.43;;;15.20;;
22184;SDS011;11258;52.516;13.318;2022-12-20T16:20:30;25.53;;;14.17;;
22184;SDS011;11258;52.516;13.318;2022-12-20T16:22:56;27.03;;;14.80;;
22184;SDS011;11258;52.516;13.318;2022-12-20T16:25:26;23.67;;;14.13;;
22184;SDS011;11258;52.516;13.318;2022-12-20T16:27:53;28.07;;;15.70;;
22184;SDS011;11258;52.516;13.318;2022-12-20T16:30:19;23.43;;;14.27;;
22184;SDS011;11258;52.516;13.318;2022-12-20T16:32:45;25.47;;;15.10;;
22184;SDS011;11258;52.516;13.318;2022-12-20T16:35:19;23.47;;;14.57;;
22184;SDS011;11258;52.516;13.318;2022-12-20T16:37:46;25.77;;;15.03;;